Spokane, WA

8:38 AM PDT on April 28, 2015 (GMT -0700)
Spokane International | | Change Station
CLOSE
Current Station
Airport
Location: Spokane,
Elevation: 2365 ft
Nearby Weather Stations

Elev 2365 ft 47.62 °N, 117.53 °W | Updated 45 minutes ago

Partly Cloudy
Partly Cloudy
51 °F
Feels Like 51 °F
N
13
Wind Variable Wind from ENE

Today
High -- | Low -- °F
--% Chance of Precip.
Yesterday
High -- | Low -- °F
Precip. -- in
5:38 AM 7:58 PM
Waxing Gibbous, 74% visible
Pressure 30.06 in
Visibility 10.0 miles
Clouds Mostly Cloudy 30000 ft
Dew Point 37 °F
Humidity 59%
Rainfall 0.00 in
Snow Depth Not available.
UV 1 out of 12
Pollen 10.20 out of 12
Air Quality Not available.
Flu Activity Regional
METAR KGEG 281453Z 06011KT 10SM BKN300 11/03 A3007 RMK AO2 SLP179 T01060028 58004

More Conditions Fewer Conditions

Pressure 30.06 in
Visibility 10.0 miles
Clouds Mostly Cloudy 30000 ft
Dew Point 37 °F
Humidity 59%
Rainfall 0.00 in
Snow Depth Not available.
UV 1 out of 12
Pollen 10.20 out of 12
Air Quality Not available.
Flu Activity Regional
METAR KGEG 281453Z 06011KT 10SM BKN300 11/03 A3007 RMK AO2 SLP179 T01060028 58004

More Conditions Fewer Conditions

10-Day Weather Forecast

Almanac

Astronomy

Apr. 28, 2015 Rise Set
Actual Time
Civil Twilight
Nautical Twilight
Astronomical Twilight
Moon
Length of Visible Light
Length of Day
Tomorrow will be .
, % of the Moon is Illuminated

Today's Extremes

State Highs State Lows

Community

WunderPhotos

Upload Photos

1,817,675 photos uploaded!

WunderBlogs® & News

Nearby

Air Quality

  Air Quality AQ Index Pollutant
Not available.

Snow Depth

Station Depth Elevation

Earthquake Activity

City Distance Mag. Time & Date
Minimum magnitude displayed is 2.5.

Coastal Water Temperatures

Place Temperature

Stations

Nearby Weather Stations

Station Location Temp. Windchill Dew Point Humidity Wind Precip. Elev Updated Type